sensor_id;sensor_type;location;lat;lon;timestamp;pressure;altitude;pressure_sealevel;temperature;humidity
11223;BME280;5668;52.012;8.724;2023-04-28T00:00:22;100165.66;;;10.93;50.88
11223;BME280;5668;52.012;8.724;2023-04-28T00:02:50;100168.50;;;10.90;50.85
11223;BME280;5668;52.012;8.724;2023-04-28T00:05:19;100157.28;;;10.89;50.89
11223;BME280;5668;52.012;8.724;2023-04-28T00:07:47;100154.56;;;10.91;50.55
11223;BME280;5668;52.012;8.724;2023-04-28T00:10:18;100152.78;;;10.91;50.84
11223;BME280;5668;52.012;8.724;2023-04-28T00:12:46;100150.31;;;10.90;50.48
11223;BME280;5668;52.012;8.724;2023-04-28T00:15:13;100142.53;;;10.90;51.07
11223;BME280;5668;52.012;8.724;2023-04-28T00:17:40;100150.44;;;10.88;51.17
11223;BME280;5668;52.012;8.724;2023-04-28T00:20:11;100147.81;;;10.88;51.23
11223;BME280;5668;52.012;8.724;2023-04-28T00:22:39;100137.44;;;10.88;51.22
11223;BME280;5668;52.012;8.724;2023-04-28T00:25:07;100131.28;;;10.89;51.31
11223;BME280;5668;52.012;8.724;2023-04-28T00:27:35;100134.81;;;10.88;51.02
11223;BME280;5668;52.012;8.724;2023-04-28T00:30:02;100123.69;;;10.86;51.29
11223;BME280;5668;52.012;8.724;2023-04-28T00:32:30;100127.97;;;10.87;51.11
11223;BME280;5668;52.012;8.724;2023-04-28T00:34:57;100119.13;;;10.90;50.99
11223;BME280;5668;52.012;8.724;2023-04-28T00:37:25;100117.31;;;10.90;51.20
11223;BME280;5668;52.012;8.724;2023-04-28T00:39:56;100117.31;;;10.90;51.28
11223;BME280;5668;52.012;8.724;2023-04-28T00:42:23;100108.94;;;10.86;51.73
11223;BME280;5668;52.012;8.724;2023-04-28T00:44:50;100108.94;;;10.86;51.69
11223;BME280;5668;52.012;8.724;2023-04-28T00:47:18;100107.16;;;10.87;51.85
11223;BME280;5668;52.012;8.724;2023-04-28T00:49:45;100093.91;;;10.90;52.10
11223;BME280;5668;52.012;8.724;2023-04-28T00:52:14;100092.16;;;10.91;51.74
11223;BME280;5668;52.012;8.724;2023-04-28T00:54:43;100092.41;;;10.88;51.60
11223;BME280;5668;52.012;8.724;2023-04-28T00:57:13;100085.53;;;10.86;52.07
11223;BME280;5668;52.012;8.724;2023-04-28T00:59:40;100080.56;;;10.83;52.06
11223;BME280;5668;52.012;8.724;2023-04-28T01:02:07;100078.56;;;10.87;52.06
11223;BME280;5668;52.012;8.724;2023-04-28T01:04:46;100074.31;;;10.86;52.09
11223;BME280;5668;52.012;8.724;2023-04-28T01:07:14;100076.69;;;10.89;52.29
11223;BME280;5668;52.012;8.724;2023-04-28T01:09:42;100069.84;;;10.88;52.15
11223;BME280;5668;52.012;8.724;2023-04-28T01:12:11;100073.47;;;10.85;52.31
11223;BME280;5668;52.012;8.724;2023-04-28T01:14:38;100079.28;;;10.89;52.14
11223;BME280;5668;52.012;8.724;2023-04-28T01:17:06;100078.31;;;10.90;52.66
11223;BME280;5668;52.012;8.724;2023-04-28T01:19:34;100069.84;;;10.88;52.50
11223;BME280;5668;52.012;8.724;2023-04-28T01:22:01;100060.13;;;10.90;52.66
11223;BME280;5668;52.012;8.724;2023-04-28T01:24:30;100058.25;;;10.92;52.90
11223;BME280;5668;52.012;8.724;2023-04-28T01:26:58;100054.72;;;10.93;52.70
11223;BME280;5668;52.012;8.724;2023-04-28T01:29:25;100060.63;;;10.95;52.64
11223;BME280;5668;52.012;8.724;2023-04-28T01:31:52;100052.81;;;10.95;52.65
11223;BME280;5668;52.012;8.724;2023-04-28T01:34:19;100054.72;;;10.93;52.98
11223;BME280;5668;52.012;8.724;2023-04-28T01:36:47;100051.16;;;10.94;53.12
11223;BME280;5668;52.012;8.724;2023-04-28T01:39:14;100039.81;;;10.95;52.96
11223;BME280;5668;52.012;8.724;2023-04-28T01:41:43;100036.97;;;10.98;52.74
11223;BME280;5668;52.012;8.724;2023-04-28T01:44:11;100037.34;;;10.94;53.40
11223;BME280;5668;52.012;8.724;2023-04-28T01:46:38;100035.69;;;10.93;53.38
11223;BME280;5668;52.012;8.724;2023-04-28T01:49:05;100025.38;;;10.91;53.30
11223;BME280;5668;52.012;8.724;2023-04-28T01:51:32;100021.84;;;10.92;53.27
11223;BME280;5668;52.012;8.724;2023-04-28T01:54:00;100027.03;;;10.92;53.44
11223;BME280;5668;52.012;8.724;2023-04-28T01:56:27;100028.94;;;10.90;53.57
11223;BME280;5668;52.012;8.724;2023-04-28T01:58:55;100026.56;;;10.87;53.19
11223;BME280;5668;52.012;8.724;2023-04-28T02:01:22;100018.78;;;10.87;53.47
11223;BME280;5668;52.012;8.724;2023-04-28T02:03:50;100007.34;;;10.90;53.81
11223;BME280;5668;52.012;8.724;2023-04-28T02:06:17;99999.75;;;10.86;53.68
11223;BME280;5668;52.012;8.724;2023-04-28T02:08:44;99997.97;;;10.87;53.82
11223;BME280;5668;52.012;8.724;2023-04-28T02:11:11;100002.13;;;10.90;53.77
11223;BME280;5668;52.012;8.724;2023-04-28T02:13:39;99990.91;;;10.89;54.11
11223;BME280;5668;52.012;8.724;2023-04-28T02:16:08;99996.09;;;10.89;54.04
11223;BME280;5668;52.012;8.724;2023-04-28T02:18:35;99994.19;;;10.91;53.96
11223;BME280;5668;52.012;8.724;2023-04-28T02:21:08;99987.94;;;10.94;53.78
11223;BME280;5668;52.012;8.724;2023-04-28T02:23:36;99993.13;;;10.94;54.01
11223;BME280;5668;52.012;8.724;2023-04-28T02:26:03;99988.78;;;10.94;54.11
11223;BME280;5668;52.012;8.724;2023-04-28T02:28:30;99990.19;;;10.98;53.71
11223;BME280;5668;52.012;8.724;2023-04-28T02:31:06;99989.94;;;11.01;53.96
11223;BME280;5668;52.012;8.724;2023-04-28T02:33:34;99979.09;;;10.96;53.97
11223;BME280;5668;52.012;8.724;2023-04-28T02:36:02;99983.34;;;10.97;54.35
11223;BME280;5668;52.012;8.724;2023-04-28T02:38:30;99976.59;;;10.95;54.07
11223;BME280;5668;52.012;8.724;2023-04-28T02:40:58;99983.56;;;10.94;54.09
11223;BME280;5668;52.012;8.724;2023-04-28T02:43:25;99981.91;;;10.93;54.20
11223;BME280;5668;52.012;8.724;2023-04-28T02:45:53;99979.19;;;10.95;54.41
11223;BME280;5668;52.012;8.724;2023-04-28T02:48:22;99976.59;;;10.95;54.39
11223;BME280;5668;52.012;8.724;2023-04-28T02:50:49;99965.38;;;10.94;54.47
11223;BME280;5668;52.012;8.724;2023-04-28T02:53:18;99963.50;;;10.96;54.36
11223;BME280;5668;52.012;8.724;2023-04-28T02:55:45;99963.22;;;10.99;54.37
11223;BME280;5668;52.012;8.724;2023-04-28T02:58:12;99957.81;;;11.02;54.46
11223;BME280;5668;52.012;8.724;2023-04-28T03:00:40;99962.28;;;11.00;54.66
11223;BME280;5668;52.012;8.724;2023-04-28T03:03:07;99962.56;;;10.97;54.46
11223;BME280;5668;52.012;8.724;2023-04-28T03:05:35;99960.63;;;10.99;54.47
11223;BME280;5668;52.012;8.724;2023-04-28T03:08:03;99947.75;;;10.98;54.75
11223;BME280;5668;52.012;8.724;2023-04-28T03:10:30;99949.28;;;11.00;54.68
11223;BME280;5668;52.012;8.724;2023-04-28T03:12:57;99947.75;;;10.98;55.01
11223;BME280;5668;52.012;8.724;2023-04-28T03:15:25;99945.97;;;10.98;55.02
11223;BME280;5668;52.012;8.724;2023-04-28T03:17:52;99945.03;;;10.99;54.99
11223;BME280;5668;52.012;8.724;2023-04-28T03:20:20;99943.25;;;11.00;54.85
11223;BME280;5668;52.012;8.724;2023-04-28T03:22:49;99941.59;;;10.99;55.05
11223;BME280;5668;52.012;8.724;2023-04-28T03:25:16;99933.81;;;10.99;54.70
11223;BME280;5668;52.012;8.724;2023-04-28T03:27:43;99940.78;;;10.98;55.12
11223;BME280;5668;52.012;8.724;2023-04-28T03:30:11;99933.81;;;10.99;54.92
11223;BME280;5668;52.012;8.724;2023-04-28T03:32:39;99931.09;;;11.00;55.06
11223;BME280;5668;52.012;8.724;2023-04-28T03:35:06;99927.78;;;10.98;54.87
11223;BME280;5668;52.012;8.724;2023-04-28T03:37:33;99926.38;;;10.94;55.24
11223;BME280;5668;52.012;8.724;2023-04-28T03:40:02;99929.44;;;10.99;55.22
11223;BME280;5668;52.012;8.724;2023-04-28T03:42:30;99936.28;;;11.00;55.29
11223;BME280;5668;52.012;8.724;2023-04-28T03:44:57;99930.53;;;10.97;55.54
11223;BME280;5668;52.012;8.724;2023-04-28T03:47:24;99924.34;;;10.98;55.23
11223;BME280;5668;52.012;8.724;2023-04-28T03:49:52;99925.19;;;10.98;55.53
11223;BME280;5668;52.012;8.724;2023-04-28T03:52:19;99920.81;;;10.99;55.51
11223;BME280;5668;52.012;8.724;2023-04-28T03:54:46;99924.22;;;10.99;55.39
11223;BME280;5668;52.012;8.724;2023-04-28T03:57:15;99920.56;;;11.02;55.23
11223;BME280;5668;52.012;8.724;2023-04-28T03:59:42;99919.88;;;11.00;55.52
11223;BME280;5668;52.012;8.724;2023-04-28T04:02:09;99917.16;;;11.01;55.41
11223;BME280;5668;52.012;8.724;2023-04-28T04:04:36;99917.97;;;11.02;55.56
11223;BME280;5668;52.012;8.724;2023-04-28T04:07:04;99915.25;;;11.03;55.46
11223;BME280;5668;52.012;8.724;2023-04-28T04:09:32;99916.94;;;11.04;55.67
11223;BME280;5668;52.012;8.724;2023-04-28T04:11:59;99918.56;;;11.05;55.64
11223;BME280;5668;52.012;8.724;2023-04-28T04:14:27;99914.56;;;11.01;55.53
11223;BME280;5668;52.012;8.724;2023-04-28T04:16:55;99912.91;;;11.00;55.76
11223;BME280;5668;52.012;8.724;2023-04-28T04:19:22;99915.25;;;11.03;55.98
11223;BME280;5668;52.012;8.724;2023-04-28T04:21:51;99911.72;;;11.04;55.94
11223;BME280;5668;52.012;8.724;2023-04-28T04:24:18;99914.19;;;11.06;56.02
11223;BME280;5668;52.012;8.724;2023-04-28T04:26:46;99909.69;;;11.08;55.82
11223;BME280;5668;52.012;8.724;2023-04-28T04:29:13;99910.91;;;11.04;55.91
11223;BME280;5668;52.012;8.724;2023-04-28T04:31:41;99905.09;;;11.00;56.06
11223;BME280;5668;52.012;8.724;2023-04-28T04:34:10;99912.66;;;11.03;55.83
11223;BME280;5668;52.012;8.724;2023-04-28T04:36:37;99905.09;;;11.00;56.35
11223;BME280;5668;52.012;8.724;2023-04-28T04:39:04;99902.38;;;11.02;56.06
11223;BME280;5668;52.012;8.724;2023-04-28T04:41:32;99906.38;;;11.06;56.20
11223;BME280;5668;52.012;8.724;2023-04-28T04:43:59;99902.25;;;11.03;56.36
11223;BME280;5668;52.012;8.724;2023-04-28T04:46:26;99901.31;;;11.04;56.59
11223;BME280;5668;52.012;8.724;2023-04-28T04:48:55;99893.38;;;11.06;56.48
11223;BME280;5668;52.012;8.724;2023-04-28T04:51:22;99899.41;;;11.06;56.68
11223;BME280;5668;52.012;8.724;2023-04-28T04:53:49;99894.09;;;11.08;56.42
11223;BME280;5668;52.012;8.724;2023-04-28T04:56:17;99890.44;;;11.10;56.51
11223;BME280;5668;52.012;8.724;2023-04-28T04:58:44;99898.94;;;11.12;56.74
11223;BME280;5668;52.012;8.724;2023-04-28T05:01:11;99892.09;;;11.11;56.73
11223;BME280;5668;52.012;8.724;2023-04-28T05:03:38;99888.66;;;11.11;57.04
11223;BME280;5668;52.012;8.724;2023-04-28T05:06:07;99881.53;;;11.13;57.21
11223;BME280;5668;52.012;8.724;2023-04-28T05:08:34;99892.09;;;11.11;57.44
11223;BME280;5668;52.012;8.724;2023-04-28T05:11:02;99878.94;;;11.13;57.47
11223;BME280;5668;52.012;8.724;2023-04-28T05:13:29;99878.16;;;11.12;57.49
11223;BME280;5668;52.012;8.724;2023-04-28T05:15:56;99876.50;;;11.11;57.76
11223;BME280;5668;52.012;8.724;2023-04-28T05:18:24;99871.28;;;11.11;57.89
11223;BME280;5668;52.012;8.724;2023-04-28T05:20:51;99867.25;;;11.07;58.27
11223;BME280;5668;52.012;8.724;2023-04-28T05:23:20;99869.84;;;11.07;58.20
11223;BME280;5668;52.012;8.724;2023-04-28T05:25:47;99868.91;;;11.08;58.68
11223;BME280;5668;52.012;8.724;2023-04-28T05:28:14;99868.81;;;11.10;58.70
11223;BME280;5668;52.012;8.724;2023-04-28T05:30:41;99875.53;;;11.12;58.78
11223;BME280;5668;52.012;8.724;2023-04-28T05:33:09;99874.56;;;11.13;59.05
11223;BME280;5668;52.012;8.724;2023-04-28T05:35:37;99872.69;;;11.15;58.52
11223;BME280;5668;52.012;8.724;2023-04-28T05:38:04;99869.03;;;11.18;58.49
11223;BME280;5668;52.012;8.724;2023-04-28T05:40:33;99873.97;;;11.21;58.67
11223;BME280;5668;52.012;8.724;2023-04-28T05:43:00;99874.69;;;11.23;58.48
11223;BME280;5668;52.012;8.724;2023-04-28T05:45:27;99866.03;;;11.22;58.93
11223;BME280;5668;52.012;8.724;2023-04-28T05:47:54;99881.41;;;11.25;59.00
11223;BME280;5668;52.012;8.724;2023-04-28T05:50:22;99872.78;;;11.25;59.01
11223;BME280;5668;52.012;8.724;2023-04-28T05:52:49;99873.34;;;11.29;58.92
11223;BME280;5668;52.012;8.724;2023-04-28T05:55:17;99871.72;;;11.28;58.73
11223;BME280;5668;52.012;8.724;2023-04-28T05:57:45;99870.63;;;11.30;59.06
11223;BME280;5668;52.012;8.724;2023-04-28T06:00:13;99866.25;;;11.31;59.27
11223;BME280;5668;52.012;8.724;2023-04-28T06:02:41;99861.06;;;11.31;59.06
11223;BME280;5668;52.012;8.724;2023-04-28T06:05:08;99865.09;;;11.35;59.21
11223;BME280;5668;52.012;8.724;2023-04-28T06:07:36;99862.09;;;11.39;59.07
11223;BME280;5668;52.012;8.724;2023-04-28T06:10:05;99854.41;;;11.38;59.21
11223;BME280;5668;52.012;8.724;2023-04-28T06:12:34;99857.00;;;11.38;59.19
11223;BME280;5668;52.012;8.724;2023-04-28T06:15:04;99854.41;;;11.38;59.11
11223;BME280;5668;52.012;8.724;2023-04-28T06:17:32;99859.72;;;11.36;59.00
11223;BME280;5668;52.012;8.724;2023-04-28T06:19:59;99851.81;;;11.38;59.07
11223;BME280;5668;52.012;8.724;2023-04-28T06:22:26;99848.84;;;11.42;59.53
11223;BME280;5668;52.012;8.724;2023-04-28T06:24:53;99853.78;;;11.45;59.60
11223;BME280;5668;52.012;8.724;2023-04-28T06:27:21;99856.41;;;11.45;59.70
11223;BME280;5668;52.012;8.724;2023-04-28T06:29:48;99852.72;;;11.48;60.02
11223;BME280;5668;52.012;8.724;2023-04-28T06:32:17;99848.91;;;11.52;60.32
11223;BME280;5668;52.012;8.724;2023-04-28T06:34:44;99851.28;;;11.55;60.60
11223;BME280;5668;52.012;8.724;2023-04-28T06:37:12;99844.41;;;11.54;60.91
11223;BME280;5668;52.012;8.724;2023-04-28T06:39:39;99841.59;;;11.57;61.33
11223;BME280;5668;52.012;8.724;2023-04-28T06:42:06;99848.69;;;11.55;61.04
11223;BME280;5668;52.012;8.724;2023-04-28T06:44:36;99843.72;;;11.52;61.23
11223;BME280;5668;52.012;8.724;2023-04-28T06:47:03;99839.94;;;11.56;61.27
11223;BME280;5668;52.012;8.724;2023-04-28T06:49:32;99833.88;;;11.55;61.03
11223;BME280;5668;52.012;8.724;2023-04-28T06:51:59;99827.84;;;11.55;61.38
11223;BME280;5668;52.012;8.724;2023-04-28T06:54:27;99833.06;;;11.55;61.70
11223;BME280;5668;52.012;8.724;2023-04-28T06:56:54;99823.22;;;11.58;61.65
11223;BME280;5668;52.012;8.724;2023-04-28T06:59:21;99824.75;;;11.61;61.68
11223;BME280;5668;52.012;8.724;2023-04-28T07:01:48;99819.97;;;11.66;62.15
11223;BME280;5668;52.012;8.724;2023-04-28T07:04:15;99823.06;;;11.71;61.61
11223;BME280;5668;52.012;8.724;2023-04-28T07:06:44;99826.47;;;11.72;61.98
11223;BME280;5668;52.012;8.724;2023-04-28T07:09:11;99824.56;;;11.74;61.77
11223;BME280;5668;52.012;8.724;2023-04-28T07:11:38;99817.59;;;11.74;61.85
11223;BME280;5668;52.012;8.724;2023-04-28T07:14:06;99821.03;;;11.75;61.94
11223;BME280;5668;52.012;8.724;2023-04-28T07:16:33;99819.84;;;11.79;62.29
11223;BME280;5668;52.012;8.724;2023-04-28T07:19:01;99818.75;;;11.81;62.35
11223;BME280;5668;52.012;8.724;2023-04-28T07:21:28;99815.91;;;11.84;62.59
11223;BME280;5668;52.012;8.724;2023-04-28T07:23:56;99815.66;;;11.87;61.92
11223;BME280;5668;52.012;8.724;2023-04-28T07:26:24;99814.69;;;11.88;62.79
11223;BME280;5668;52.012;8.724;2023-04-28T07:28:51;99800.47;;;11.92;63.11
11223;BME280;5668;52.012;8.724;2023-04-28T07:31:18;99807.88;;;11.97;62.94
11223;BME280;5668;52.012;8.724;2023-04-28T07:33:46;99807.88;;;11.97;63.19
11223;BME280;5668;52.012;8.724;2023-04-28T07:36:14;99804.22;;;11.99;63.23
11223;BME280;5668;52.012;8.724;2023-04-28T07:38:41;99807.38;;;12.03;63.11
11223;BME280;5668;52.012;8.724;2023-04-28T07:41:10;99807.94;;;12.07;63.57
11223;BME280;5668;52.012;8.724;2023-04-28T07:43:37;99812.09;;;12.09;63.33
11223;BME280;5668;52.012;8.724;2023-04-28T07:46:06;99810.97;;;12.12;63.08
11223;BME280;5668;52.012;8.724;2023-04-28T07:48:33;99812.38;;;12.16;63.90
11223;BME280;5668;52.012;8.724;2023-04-28T07:51:01;99807.59;;;12.21;64.01
11223;BME280;5668;52.012;8.724;2023-04-28T07:53:28;99799.53;;;12.24;63.82
11223;BME280;5668;52.012;8.724;2023-04-28T07:55:55;99794.06;;;12.27;64.25
11223;BME280;5668;52.012;8.724;2023-04-28T07:58:24;99786.69;;;12.32;63.92
11223;BME280;5668;52.012;8.724;2023-04-28T08:00:51;99796.13;;;12.33;64.14
11223;BME280;5668;52.012;8.724;2023-04-28T08:03:18;99798.47;;;12.36;64.03
11223;BME280;5668;52.012;8.724;2023-04-28T08:05:46;99794.69;;;12.40;64.31
11223;BME280;5668;52.012;8.724;2023-04-28T08:08:13;99783.97;;;12.43;64.22
11223;BME280;5668;52.012;8.724;2023-04-28T08:10:40;99782.91;;;12.46;65.20
11223;BME280;5668;52.012;8.724;2023-04-28T08:13:08;99782.63;;;12.49;65.51
11223;BME280;5668;52.012;8.724;2023-04-28T08:15:37;99777.72;;;12.55;66.18
11223;BME280;5668;52.012;8.724;2023-04-28T08:18:04;99772.50;;;12.55;66.80
11223;BME280;5668;52.012;8.724;2023-04-28T08:20:31;99774.69;;;12.60;67.46
11223;BME280;5668;52.012;8.724;2023-04-28T08:22:59;99772.63;;;12.63;67.64
11223;BME280;5668;52.012;8.724;2023-04-28T08:25:26;99772.25;;;12.68;68.25
11223;BME280;5668;52.012;8.724;2023-04-28T08:27:53;99767.59;;;12.71;68.74
11223;BME280;5668;52.012;8.724;2023-04-28T08:30:21;99767.34;;;12.74;69.46
11223;BME280;5668;52.012;8.724;2023-04-28T08:32:50;99772.00;;;12.80;69.34
11223;BME280;5668;52.012;8.724;2023-04-28T08:35:17;99769.00;;;12.85;69.41
11223;BME280;5668;52.012;8.724;2023-04-28T08:37:44;99764.59;;;12.86;70.19
11223;BME280;5668;52.012;8.724;2023-04-28T08:40:14;99757.34;;;12.89;69.85
11223;BME280;5668;52.012;8.724;2023-04-28T08:42:43;99750.34;;;12.90;70.42
11223;BME280;5668;52.012;8.724;2023-04-28T08:45:13;99759.25;;;12.97;70.95
11223;BME280;5668;52.012;8.724;2023-04-28T08:47:41;99760.38;;;13.04;71.51
11223;BME280;5668;52.012;8.724;2023-04-28T08:50:13;99763.25;;;13.10;71.12
11223;BME280;5668;52.012;8.724;2023-04-28T08:52:41;99760.94;;;13.17;71.15
11223;BME280;5668;52.012;8.724;2023-04-28T08:55:11;99761.38;;;13.22;71.20
11223;BME280;5668;52.012;8.724;2023-04-28T08:57:41;99757.25;;;13.29;71.49
11223;BME280;5668;52.012;8.724;2023-04-28T09:00:10;99768.78;;;13.36;71.40
11223;BME280;5668;52.012;8.724;2023-04-28T09:02:37;99762.31;;;13.40;71.31
11223;BME280;5668;52.012;8.724;2023-04-28T09:05:07;99763.00;;;13.42;71.81
11223;BME280;5668;52.012;8.724;2023-04-28T09:07:36;99772.06;;;13.48;72.28
11223;BME280;5668;52.012;8.724;2023-04-28T09:10:17;99771.38;;;13.55;71.50
11223;BME280;5668;52.012;8.724;2023-04-28T09:12:45;99766.84;;;13.57;72.36
11223;BME280;5668;52.012;8.724;2023-04-28T09:15:25;99763.41;;;13.67;72.35
11223;BME280;5668;52.012;8.724;2023-04-28T09:17:53;99760.78;;;13.67;71.65
11223;BME280;5668;52.012;8.724;2023-04-28T09:20:21;99760.47;;;13.70;71.82
11223;BME280;5668;52.012;8.724;2023-04-28T09:22:51;99755.00;;;13.73;71.37
11223;BME280;5668;52.012;8.724;2023-04-28T09:25:19;99763.22;;;13.78;71.23
11223;BME280;5668;52.012;8.724;2023-04-28T09:27:48;99761.16;;;13.81;71.23
11223;BME280;5668;52.012;8.724;2023-04-28T09:30:15;99768.69;;;13.84;71.62
11223;BME280;5668;52.012;8.724;2023-04-28T09:32:42;99766.50;;;13.89;71.54
11223;BME280;5668;52.012;8.724;2023-04-28T09:35:10;99768.00;;;13.92;70.55
11223;BME280;5668;52.012;8.724;2023-04-28T09:37:37;99765.38;;;13.92;71.35
11223;BME280;5668;52.012;8.724;2023-04-28T09:40:09;99756.56;;;13.93;71.04
11223;BME280;5668;52.012;8.724;2023-04-28T09:42:38;99764.41;;;13.93;71.03
11223;BME280;5668;52.012;8.724;2023-04-28T09:45:07;99753.00;;;13.94;70.92
11223;BME280;5668;52.012;8.724;2023-04-28T09:47:37;99742.13;;;13.99;71.00
11223;BME280;5668;52.012;8.724;2023-04-28T09:50:06;99734.69;;;14.04;71.37
11223;BME280;5668;52.012;8.724;2023-04-28T09:52:34;99720.81;;;14.03;72.35
11223;BME280;5668;52.012;8.724;2023-04-28T09:55:03;99729.31;;;14.05;73.19
11223;BME280;5668;52.012;8.724;2023-04-28T09:57:33;99727.81;;;14.03;74.00
11223;BME280;5668;52.012;8.724;2023-04-28T10:00:02;99725.44;;;14.09;74.50
11223;BME280;5668;52.012;8.724;2023-04-28T10:02:32;99739.19;;;14.11;75.17
11223;BME280;5668;52.012;8.724;2023-04-28T10:05:00;99739.44;;;14.18;75.42
11223;BME280;5668;52.012;8.724;2023-04-28T10:07:28;99734.22;;;14.18;76.61
11223;BME280;5668;52.012;8.724;2023-04-28T10:10:00;99731.47;;;14.19;77.11
11223;BME280;5668;52.012;8.724;2023-04-28T10:12:28;99734.09;;;14.19;78.83
11223;BME280;5668;52.012;8.724;2023-04-28T10:14:57;99729.81;;;14.18;79.20
11223;BME280;5668;52.012;8.724;2023-04-28T10:17:25;99741.22;;;14.17;79.37
11223;BME280;5668;52.012;8.724;2023-04-28T10:19:54;99735.47;;;14.14;80.06
11223;BME280;5668;52.012;8.724;2023-04-28T10:22:33;99732.59;;;14.07;80.29
11223;BME280;5668;52.012;8.724;2023-04-28T10:25:24;99731.13;;;14.05;80.84
11223;BME280;5668;52.012;8.724;2023-04-28T10:27:52;99733.03;;;14.03;81.55
11223;BME280;5668;52.012;8.724;2023-04-28T10:30:22;99726.72;;;14.05;82.25
11223;BME280;5668;52.012;8.724;2023-04-28T10:33:23;99719.25;;;14.10;81.65
11223;BME280;5668;52.012;8.724;2023-04-28T10:35:51;99716.38;;;14.13;82.50
11223;BME280;5668;52.012;8.724;2023-04-28T10:38:19;99711.16;;;14.13;82.22
11223;BME280;5668;52.012;8.724;2023-04-28T10:40:47;99712.22;;;14.20;82.48
11223;BME280;5668;52.012;8.724;2023-04-28T10:43:34;99704.06;;;14.23;82.37
11223;BME280;5668;52.012;8.724;2023-04-28T10:46:13;99704.75;;;14.25;81.80
11223;BME280;5668;52.012;8.724;2023-04-28T10:48:56;99708.03;;;14.27;82.50
11223;BME280;5668;52.012;8.724;2023-04-28T10:51:27;99716.25;;;14.32;82.92
11223;BME280;5668;52.012;8.724;2023-04-28T10:54:17;99713.38;;;14.36;83.35
11223;BME280;5668;52.012;8.724;2023-04-28T10:57:16;99706.19;;;14.38;83.02
11223;BME280;5668;52.012;8.724;2023-04-28T10:59:44;99708.56;;;14.41;82.77
11223;BME280;5668;52.012;8.724;2023-04-28T11:02:38;99706.31;;;14.46;82.46
11223;BME280;5668;52.012;8.724;2023-04-28T11:05:16;99705.34;;;14.47;82.20
11223;BME280;5668;52.012;8.724;2023-04-28T11:11:21;99705.72;;;14.52;82.42
11223;BME280;5668;52.012;8.724;2023-04-28T11:13:49;99705.72;;;14.52;82.56
11223;BME280;5668;52.012;8.724;2023-04-28T11:16:25;99699.38;;;14.54;81.85
11223;BME280;5668;52.012;8.724;2023-04-28T11:18:59;99706.53;;;14.52;82.32
11223;BME280;5668;52.012;8.724;2023-04-28T11:21:29;99701.53;;;14.59;81.92
11223;BME280;5668;52.012;8.724;2023-04-28T11:23:57;99689.16;;;14.61;81.71
11223;BME280;5668;52.012;8.724;2023-04-28T11:26:25;99683.91;;;14.61;82.00
11223;BME280;5668;52.012;8.724;2023-04-28T11:28:54;99684.59;;;14.63;82.04
11223;BME280;5668;52.012;8.724;2023-04-28T11:31:23;99686.91;;;14.66;81.82
11223;BME280;5668;52.012;8.724;2023-04-28T11:34:02;99689.91;;;14.71;81.78
11223;BME280;5668;52.012;8.724;2023-04-28T11:36:33;99681.09;;;14.72;81.65
11223;BME280;5668;52.012;8.724;2023-04-28T11:39:02;99681.75;;;14.74;81.81
11223;BME280;5668;52.012;8.724;2023-04-28T11:41:32;99672.78;;;14.77;81.73
11223;BME280;5668;52.012;8.724;2023-04-28T11:44:08;99676.91;;;14.79;81.95
11223;BME280;5668;52.012;8.724;2023-04-28T11:46:35;99667.63;;;14.85;82.57
11223;BME280;5668;52.012;8.724;2023-04-28T11:49:17;99669.50;;;14.92;82.53
11223;BME280;5668;52.012;8.724;2023-04-28T11:51:45;99662.53;;;15.01;83.08
11223;BME280;5668;52.012;8.724;2023-04-28T11:54:20;99663.44;;;15.09;83.37
11223;BME280;5668;52.012;8.724;2023-04-28T11:56:47;99663.94;;;15.13;83.57
11223;BME280;5668;52.012;8.724;2023-04-28T11:59:15;99653.66;;;15.20;83.42
11223;BME280;5668;52.012;8.724;2023-04-28T12:01:46;99649.84;;;15.32;82.42
11223;BME280;5668;52.012;8.724;2023-04-28T12:04:26;99642.19;;;15.38;82.81
11223;BME280;5668;52.012;8.724;2023-04-28T12:07:05;99642.41;;;15.45;82.24
11223;BME280;5668;52.012;8.724;2023-04-28T12:09:35;99649.84;;;15.58;81.75
11223;BME280;5668;52.012;8.724;2023-04-28T12:12:04;99659.56;;;15.65;80.77
11223;BME280;5668;52.012;8.724;2023-04-28T12:14:32;99650.44;;;15.69;79.47
11223;BME280;5668;52.012;8.724;2023-04-28T12:17:23;99642.91;;;15.74;78.77
11223;BME280;5668;52.012;8.724;2023-04-28T12:19:52;99642.81;;;15.84;77.94
11223;BME280;5668;52.012;8.724;2023-04-28T12:22:20;99648.22;;;15.91;77.54
11223;BME280;5668;52.012;8.724;2023-04-28T12:25:02;99643.16;;;15.97;76.94
11223;BME280;5668;52.012;8.724;2023-04-28T12:27:30;99641.91;;;16.01;77.00
11223;BME280;5668;52.012;8.724;2023-04-28T12:29:57;99641.06;;;16.01;76.58
11223;BME280;5668;52.012;8.724;2023-04-28T12:32:37;99643.69;;;16.09;75.71
11223;BME280;5668;52.012;8.724;2023-04-28T12:35:07;99634.84;;;16.10;76.49
11223;BME280;5668;52.012;8.724;2023-04-28T12:37:35;99626.38;;;16.16;76.69
11223;BME280;5668;52.012;8.724;2023-04-28T12:40:07;99620.16;;;16.25;76.46
11223;BME280;5668;52.012;8.724;2023-04-28T12:42:35;99624.78;;;16.31;76.71
11223;BME280;5668;52.012;8.724;2023-04-28T12:45:07;99613.94;;;16.34;76.30
11223;BME280;5668;52.012;8.724;2023-04-28T12:47:36;99617.72;;;16.40;75.62
11223;BME280;5668;52.012;8.724;2023-04-28T12:50:07;99621.84;;;16.42;75.30
11223;BME280;5668;52.012;8.724;2023-04-28T12:52:36;99627.25;;;16.49;75.61
11223;BME280;5668;52.012;8.724;2023-04-28T12:55:03;99628.75;;;16.51;75.36
11223;BME280;5668;52.012;8.724;2023-04-28T12:57:31;99623.81;;;16.56;75.16
11223;BME280;5668;52.012;8.724;2023-04-28T12:59:58;99625.00;;;16.62;74.73
11223;BME280;5668;52.012;8.724;2023-04-28T13:02:25;99627.16;;;16.67;74.29
11223;BME280;5668;52.012;8.724;2023-04-28T13:04:53;99625.81;;;16.71;74.09
11223;BME280;5668;52.012;8.724;2023-04-28T13:07:21;99622.88;;;16.74;73.43
11223;BME280;5668;52.012;8.724;2023-04-28T13:09:49;99626.50;;;16.73;73.55
11223;BME280;5668;52.012;8.724;2023-04-28T13:12:16;99627.47;;;16.80;73.10
11223;BME280;5668;52.012;8.724;2023-04-28T13:14:43;99624.03;;;16.79;73.11
11223;BME280;5668;52.012;8.724;2023-04-28T13:17:11;99621.25;;;16.81;73.34
11223;BME280;5668;52.012;8.724;2023-04-28T13:19:38;99623.38;;;16.85;74.04
11223;BME280;5668;52.012;8.724;2023-04-28T13:22:06;99618.28;;;16.92;74.57